DW9770 Montrose AL US current weather conditions

sailwx.info

Wind from 117 at 0 knots gusting 2

Air temperature 26.7° C
Dewpoint 25.3° C

Last reported at 2019-Jul-16 05:00 UTC.
Time now 2019-Jul-16 06:09 UTC

Location: N 30°33' W 087°54'.
View on Google Maps.

See reports from other nearby stations

  
Tides and Currents Weather Stations Pressure Air Temp Water Temp Dewpoint Dewpoint Depression Visibility Wind Speed Wind Dir Waves Ship Positions
date/time (UTC)wind fromknots sea level pressurealtimeterstation pressurevisibilityair tempwater tempwave heightnotes
2019-Jul-16 05:00 117 0 gusting 2 26.7
2019-Jul-16 04:45 110 0 gusting 3 26.7
2019-Jul-16 04:30 123 1 gusting 5 26.7
2019-Jul-16 04:15 088 0 gusting 2 26.7
2019-Jul-16 04:00 101 26.7
2019-Jul-16 03:45 098 0 gusting 1 26.7
2019-Jul-16 03:30 110 0 gusting 2 26.7
2019-Jul-16 03:16 104 0 gusting 2 27.2
2019-Jul-16 03:01 126 27.2
2019-Jul-16 02:45 128 0 gusting 1 27.2
2019-Jul-16 02:30 129 27.2
2019-Jul-16 02:15 129 27.2
2019-Jul-16 01:45 129 27.8
2019-Jul-16 01:30 129 27.8
2019-Jul-16 01:15 130 0 gusting 2 28.3
2019-Jul-16 01:00 137 28.3
2019-Jul-16 00:45 129 2 gusting 4 28.9
2019-Jul-16 00:30 123 4 gusting 6 28.9
2019-Jul-16 00:16 157 3 gusting 8 29.4
2019-Jul-16 00:00 144 4 gusting 7 29.4
2019-Jul-15 23:45 148 4 gusting 7 29.4
2019-Jul-15 23:30 157 5 gusting 10 29.4
2019-Jul-15 23:15 163 6 gusting 11 30.0
2019-Jul-15 23:00 159 5 gusting 10 30.0
2019-Jul-15 22:45 189 7 gusting 10 30.0
2019-Jul-15 22:30 193 7 gusting 10 30.0
2019-Jul-15 22:00 171 7 gusting 12 30.0
2019-Jul-15 21:45 161 6 gusting 10 30.0
2019-Jul-15 21:30 188 9 gusting 13 30.0
2019-Jul-15 21:15 161 9 gusting 13 30.0
2019-Jul-15 21:00 182 10 gusting 15 30.0
2019-Jul-15 20:47 178 11 gusting 14 30.0
2019-Jul-15 20:32 184 11 gusting 15 30.0
2019-Jul-15 20:18 181 8 gusting 10 30.0
2019-Jul-15 20:02 148 6 gusting 13 30.0
2019-Jul-15 19:47 173 8 gusting 13 30.0
2019-Jul-15 19:31 169 9 gusting 17 30.0
2019-Jul-15 19:16 155 9 gusting 14 30.0
2019-Jul-15 19:01 192 11 gusting 14 30.0
2019-Jul-15 18:46 163 8 gusting 12 30.6
2019-Jul-15 18:31 183 9 gusting 13 30.6
2019-Jul-15 18:16 181 8 gusting 13 30.0
2019-Jul-15 18:01 171 9 gusting 13 30.0
2019-Jul-15 17:45 145 11 gusting 15 30.6
2019-Jul-15 17:31 183 8 gusting 12 30.0
2019-Jul-15 17:16 161 9 gusting 14 30.0
2019-Jul-15 17:02 175 10 gusting 13 30.0
2019-Jul-15 16:48 185 9 gusting 13 29.4
2019-Jul-15 16:31 181 8 gusting 14 30.0
2019-Jul-15 16:16 192 11 gusting 13 29.4
2019-Jul-15 16:01 172 8 gusting 11 29.4
2019-Jul-15 15:45 138 7 gusting 14 29.4
2019-Jul-15 15:31 173 8 gusting 11 29.4
2019-Jul-15 15:16 189 8 gusting 13 29.4
2019-Jul-15 15:01 189 6 gusting 8 28.9
2019-Jul-15 14:46 180 7 gusting 12 28.9
2019-Jul-15 14:31 166 7 gusting 12 28.9
2019-Jul-15 14:15 188 9 gusting 12 28.9
2019-Jul-15 14:00 167 6 gusting 9 29.4
2019-Jul-15 13:45 178 8 gusting 12 28.9
2019-Jul-15 13:30 158 7 gusting 10 28.9
2019-Jul-15 13:15 152 6 gusting 9 28.3
2019-Jul-15 13:00 165 8 gusting 13 28.3
2019-Jul-15 12:45 136 2 gusting 6 27.8
2019-Jul-15 12:30 138 1 gusting 3 27.2
2019-Jul-15 12:15 125 0 gusting 3 26.7
2019-Jul-15 12:00 126 0 gusting 4 26.7
2019-Jul-15 11:47 136 1 gusting 3 26.1
2019-Jul-15 11:31 104 0 gusting 1 26.1
2019-Jul-15 11:17 103 0 gusting 1 26.1
2019-Jul-15 11:03 106 0 gusting 2 26.1
2019-Jul-15 10:47 112 0 gusting 1 26.1
2019-Jul-15 10:32 116 0 gusting 2 26.1
2019-Jul-15 10:17 105 26.1
2019-Jul-15 10:01 111 26.1
2019-Jul-15 09:46 111 26.1
2019-Jul-15 09:33 111 0 gusting 1 26.1
2019-Jul-15 09:18 111 0 gusting 1 26.1
2019-Jul-15 09:01 111 0 gusting 2 26.1
2019-Jul-15 08:46 113 0 gusting 2 26.7
2019-Jul-15 08:31 121 0 gusting 4 26.7
2019-Jul-15 08:16 121 1 gusting 4 26.7
2019-Jul-15 08:01 111 0 gusting 1 26.7
2019-Jul-15 07:46 116 0 gusting 3 26.7
2019-Jul-15 07:32 117 1 gusting 2 26.7
2019-Jul-15 07:16 121 1 gusting 3 26.7
2019-Jul-15 07:01 121 1 gusting 4 26.7
2019-Jul-15 06:46 121 1 gusting 4 27.2
2019-Jul-15 06:32 130 2 gusting 6 27.2
2019-Jul-15 06:16 142 2 gusting 4 27.2
2019-Jul-15 06:01 128 4 gusting 6 27.2
2019-Jul-15 05:46 126 1 gusting 4 26.7
2019-Jul-15 05:31 129 0 gusting 4 26.7
2019-Jul-15 05:15 115 1 gusting 4 26.7
2019-Jul-15 05:00 111 1 gusting 6 27.2
2019-Jul-15 04:45 115 2 gusting 6 27.2
2019-Jul-15 04:31 118 1 gusting 6 27.2
2019-Jul-15 04:16 120 1 gusting 5 27.2
2019-Jul-15 04:00 105 0 gusting 2 27.2
2019-Jul-15 03:46 106 0 gusting 2 27.2
2019-Jul-15 03:30 107 0 gusting 2 27.2
2019-Jul-15 03:15 110 27.2
2019-Jul-15 03:00 111 0 gusting 1 27.2
2019-Jul-15 02:45 115 0 gusting 3 27.2
2019-Jul-15 02:30 105 0 gusting 2 27.2
2019-Jul-15 02:15 113 0 gusting 3 27.2
2019-Jul-15 02:00 112 0 gusting 2 27.2
2019-Jul-15 01:45 113 0 gusting 2 27.2
2019-Jul-15 01:31 115 0 gusting 3 26.7
2019-Jul-15 01:16 123 0 gusting 3 26.7
2019-Jul-15 01:00 120 0 gusting 3 26.7
2019-Jul-15 00:46 117 0 gusting 2 27.2
2019-Jul-15 00:30 117 27.2
2019-Jul-15 00:15 117 27.2
2019-Jul-15 00:00 076 27.8
2019-Jul-14 23:45 094 27.8
2019-Jul-14 23:30 090 0 gusting 2 28.3
2019-Jul-14 23:00 111 2 gusting 6 29.4
2019-Jul-14 22:45 143 5 gusting 9 29.4
2019-Jul-14 22:30 140 6 gusting 10 29.4
2019-Jul-14 22:15 138 6 gusting 11 29.4
2019-Jul-14 22:00 172 6 gusting 11 29.4
2019-Jul-14 21:45 135 6 gusting 13 29.4
2019-Jul-14 21:30 133 8 gusting 14 29.4
2019-Jul-14 21:15 158 8 gusting 12 29.4
2019-Jul-14 21:00 146 5 gusting 11 29.4
2019-Jul-14 20:45 147 8 gusting 16 29.4
2019-Jul-14 20:30 154 6 gusting 13 29.4
2019-Jul-14 20:15 144 8 gusting 13 29.4
2019-Jul-14 20:00 120 12 gusting 16 30.0
2019-Jul-14 19:45 150 10 gusting 18 30.0
2019-Jul-14 19:30 138 8 gusting 14 30.0
2019-Jul-14 19:15 165 10 gusting 16 30.0
2019-Jul-14 19:00 107 12 gusting 19 30.0
2019-Jul-14 18:45 144 11 gusting 16 30.0
2019-Jul-14 18:30 155 6 gusting 17 30.0
2019-Jul-14 18:17 134 8 gusting 16 30.0
2019-Jul-14 18:02 170 10 gusting 13 30.6
2019-Jul-14 17:47 152 8 gusting 19 30.6
2019-Jul-14 17:32 159 10 gusting 15 30.0
2019-Jul-14 17:17 165 10 gusting 19 30.0
2019-Jul-14 17:02 126 9 gusting 19 30.6
2019-Jul-14 16:46 130 11 gusting 16 30.6
2019-Jul-14 16:32 172 8 gusting 15 30.6
2019-Jul-14 16:17 150 10 gusting 15 30.0
2019-Jul-14 16:01 124 6 gusting 17 30.0
2019-Jul-14 15:46 163 10 gusting 16 30.0
2019-Jul-14 15:32 153 6 gusting 10 30.0
2019-Jul-14 15:17 126 8 gusting 12 30.0
2019-Jul-14 15:01 123 6 gusting 14 30.0
2019-Jul-14 14:46 129 6 gusting 16 30.0
2019-Jul-14 14:32 142 10 gusting 19 29.4
2019-Jul-14 14:15 144 10 gusting 17 29.4
2019-Jul-14 14:01 129 8 gusting 15 29.4
2019-Jul-14 13:45 133 7 gusting 13 29.4
2019-Jul-14 13:30 119 5 gusting 9 28.9
2019-Jul-14 13:15 089 5 gusting 9 28.3
2019-Jul-14 13:00 144 1 gusting 6 27.8
2019-Jul-14 12:45 092 0 gusting 5 27.2
2019-Jul-14 12:30 120 1 gusting 5 26.7
2019-Jul-14 12:15 120 2 gusting 5 26.1
2019-Jul-14 12:00 121 1 gusting 3 25.6
2019-Jul-14 11:45 111 25.6
2019-Jul-14 11:30 135 25.6
2019-Jul-14 11:15 104 1 gusting 3 25.0
2019-Jul-14 11:00 105 2 gusting 7 25.0
2019-Jul-14 10:45 111 2 gusting 6 25.6
2019-Jul-14 10:30 121 1 gusting 4 25.6
2019-Jul-14 10:17 121 1 gusting 3 25.6
2019-Jul-14 10:02 165 4 gusting 13 26.1
2019-Jul-14 09:46 128 6 gusting 17 26.7
2019-Jul-14 09:32 125 2 gusting 5 27.2
2019-Jul-14 09:16 101 0 gusting 6 27.2
2019-Jul-14 09:02 134 1 gusting 3 27.2
2019-Jul-14 08:47 117 1 gusting 4 27.2
2019-Jul-14 08:31 123 1 gusting 4 27.2
2019-Jul-14 08:16 129 2 gusting 6 26.7
2019-Jul-14 08:01 136 1 gusting 3 26.7
2019-Jul-14 07:46 138 0 gusting 3 26.7
2019-Jul-14 07:31 126 0 gusting 2 26.7
2019-Jul-14 07:16 130 0 gusting 3 26.7
2019-Jul-14 07:01 116 0 gusting 3 26.7
2019-Jul-14 06:46 129 0 gusting 6 26.7
2019-Jul-14 06:31 116 0 gusting 2 26.7
2019-Jul-14 06:15 118 1 gusting 3 26.7
2019-Jul-14 06:01 127 0 gusting 3 26.7